Time;durP1;ratioP1;P1;durP2;ratioP2;P2;SDS_P1;SDS_P2;PMS_P1;PMS_P2;Temp;Humidity;BMP_temperature;BMP_pressure;BME280_temperature;BME280_humidity;BME280_pressure;Samples;Min_cycle;Max_cycle;Signal;HPM_P1;HPM_P2
2022/09/16 00:00:50;;;;;;;11.35;2.80;;;;;;;12.19;90.87;101050.53;5073995;28;20118;-60
2022/09/16 00:03:16;;;;;;;8.63;3.00;;;;;;;12.22;92.38;101056.34;5067551;28;20422;-57
2022/09/16 00:05:47;;;;;;;6.93;2.83;;;;;;;12.26;92.75;101050.66;5064696;28;20037;-58
2022/09/16 00:08:13;;;;;;;7.82;3.00;;;;;;;12.23;92.17;101058.00;5083201;28;20028;-59
2022/09/16 00:10:39;;;;;;;8.05;3.00;;;;;;;12.19;91.68;101051.34;5067210;28;20182;-57
2022/09/16 00:13:05;;;;;;;6.63;2.90;;;;;;;12.23;92.05;101052.66;5077921;28;20100;-57
2022/09/16 00:15:30;;;;;;;11.38;3.20;;;;;;;12.23;92.33;101047.34;5076065;28;20020;-59
2022/09/16 00:17:55;;;;;;;8.68;2.90;;;;;;;12.27;92.54;101049.66;5080735;28;20039;-59
2022/09/16 00:20:21;;;;;;;9.77;3.10;;;;;;;12.25;92.78;101044.53;5077692;28;20047;-56
2022/09/16 00:22:46;;;;;;;8.43;3.50;;;;;;;12.29;93.03;101045.03;5079000;28;20586;-57
2022/09/16 00:25:11;;;;;;;11.27;3.30;;;;;;;12.29;92.77;101039.72;5075739;28;20032;-56
2022/09/16 00:27:36;;;;;;;6.93;3.25;;;;;;;12.26;93.36;101045.34;5085390;28;20043;-57
2022/09/16 00:30:02;;;;;;;7.63;2.95;;;;;;;12.24;93.34;101043.69;5075250;28;20545;-59
2022/09/16 00:32:28;;;;;;;8.27;3.10;;;;;;;12.22;92.64;101040.38;5070312;28;20028;-56
2022/09/16 00:34:53;;;;;;;9.07;3.22;;;;;;;12.27;93.07;101039.03;5078458;28;20464;-58
2022/09/16 00:37:18;;;;;;;8.27;3.72;;;;;;;12.27;93.48;101041.69;5078608;28;20131;-56
2022/09/16 00:39:47;;;;;;;10.18;3.33;;;;;;;12.21;93.39;101044.03;5072678;28;20991;-58
2022/09/16 00:42:12;;;;;;;9.38;3.35;;;;;;;12.19;92.42;101046.00;5069342;28;20422;-58
2022/09/16 00:44:59;;;;;;;8.63;3.20;;;;;;;12.17;92.07;101037.38;5072989;28;20052;-57
2022/09/16 00:47:44;;;;;;;10.80;3.50;;;;;;;12.09;91.59;101034.75;5082492;28;20032;-57
2022/09/16 00:50:15;;;;;;;13.02;3.50;;;;;;;12.10;91.49;101025.75;5072444;28;20488;-57
2022/09/16 00:52:41;;;;;;;7.63;3.30;;;;;;;12.07;90.55;101031.41;5076313;28;20032;-59
2022/09/16 00:55:10;;;;;;;11.38;3.65;;;;;;;12.02;90.81;101033.69;5068619;28;20019;-56
2022/09/16 00:57:36;;;;;;;9.00;3.30;;;;;;;11.98;90.72;101034.03;5086812;28;20028;-57
2022/09/16 01:00:07;;;;;;;9.65;3.63;;;;;;;11.98;91.87;101033.19;5066353;28;20044;-58
2022/09/16 01:02:32;;;;;;;7.47;3.65;;;;;;;12.00;92.09;101035.69;5074938;28;20384;-57
2022/09/16 01:05:10;;;;;;;11.80;3.78;;;;;;;11.89;91.79;101032.38;5077712;28;20040;-57
2022/09/16 01:07:42;;;;;;;10.80;3.70;;;;;;;11.82;91.00;101034.03;5096082;28;20384;-56
2022/09/16 01:10:08;;;;;;;8.95;3.50;;;;;;;11.83;91.65;101025.91;5076653;28;20036;-57
2022/09/16 01:12:35;;;;;;;9.77;3.88;;;;;;;11.75;91.48;101027.72;5071928;28;20040;-56
2022/09/16 01:15:03;;;;;;;9.00;3.50;;;;;;;11.67;91.54;101024.06;5079983;28;20043;-56
2022/09/16 01:18:05;;;;;;;8.10;3.72;;;;;;;11.66;91.69;101025.06;5080855;28;20471;-57
2022/09/16 01:20:52;;;;;;;8.75;3.72;;;;;;;11.52;92.46;101031.00;5073078;28;20124;-56
2022/09/16 01:23:56;;;;;;;9.70;3.58;;;;;;;11.52;92.01;101031.84;5069701;28;20093;-57
2022/09/16 01:26:49;;;;;;;10.95;3.47;;;;;;;11.43;92.90;101020.38;5047913;28;20159;-56
2022/09/16 01:29:36;;;;;;;8.98;3.60;;;;;;;11.46;93.13;101024.53;5078353;28;20025;-57
2022/09/16 01:32:22;;;;;;;11.75;3.80;;;;;;;11.38;92.59;101022.69;5066969;28;20031;-57
2022/09/16 01:35:32;;;;;;;8.45;3.78;;;;;;;11.40;93.29;101026.00;5079366;28;20040;-57
2022/09/16 01:38:16;;;;;;;8.82;3.63;;;;;;;11.47;93.18;101025.34;5002527;28;20048;-57
2022/09/16 01:41:05;;;;;;;9.98;3.60;;;;;;;11.44;92.35;101026.50;4999034;28;20065;-57
2022/09/16 01:43:58;;;;;;;8.90;3.67;;;;;;;11.40;92.28;101020.69;5060059;28;20522;-57
2022/09/16 01:46:32;;;;;;;9.48;3.55;;;;;;;11.37;92.97;101015.72;5080089;28;20043;-60
2022/09/16 01:49:05;;;;;;;8.93;3.53;;;;;;;11.38;92.78;101019.19;5070490;28;20043;-58
2022/09/16 01:52:08;;;;;;;8.05;3.42;;;;;;;11.40;93.08;101012.72;5066385;28;20095;-57
2022/09/16 01:54:46;;;;;;;10.32;3.67;;;;;;;11.32;91.34;101012.72;5062772;28;20044;-56
2022/09/16 01:57:21;;;;;;;8.18;3.50;;;;;;;11.28;90.84;101021.97;5083275;28;20402;-57
2022/09/16 01:59:56;;;;;;;9.00;3.25;;;;;;;11.21;91.51;101020.97;5074820;28;20047;-56
2022/09/16 02:02:28;;;;;;;12.10;3.50;;;;;;;11.12;91.25;101023.59;5074540;28;20028;-58
2022/09/16 02:04:56;;;;;;;12.77;3.87;;;;;;;11.10;91.36;101025.56;5079711;28;20123;-58
2022/09/16 02:07:26;;;;;;;8.88;3.53;;;;;;;11.06;91.58;101029.56;5088938;28;20042;-57
2022/09/16 02:09:57;;;;;;;10.63;3.38;;;;;;;11.09;92.26;101036.34;5074178;28;20032;-57
2022/09/16 02:12:28;;;;;;;9.95;3.50;;;;;;;11.05;92.29;101037.66;5081991;28;20040;-60
2022/09/16 02:14:58;;;;;;;10.30;3.70;;;;;;;11.07;91.95;101036.53;5071647;28;20040;-57
2022/09/16 02:17:28;;;;;;;7.72;3.40;;;;;;;11.06;91.67;101037.50;5090017;28;20126;-57
2022/09/16 02:20:00;;;;;;;5.22;3.10;;;;;;;11.10;91.92;101038.84;5079980;28;20023;-57
2022/09/16 02:22:38;;;;;;;7.82;3.50;;;;;;;11.06;91.41;101024.25;5070588;28;20064;-59
2022/09/16 02:25:07;;;;;;;6.28;3.30;;;;;;;11.08;91.11;101030.22;5066824;28;20086;-56
2022/09/16 02:27:36;;;;;;;9.00;3.10;;;;;;;11.10;91.50;101032.72;5084015;28;20028;-57
2022/09/16 02:30:06;;;;;;;8.00;3.25;;;;;;;11.11;91.78;101027.22;5066075;28;20021;-56
2022/09/16 02:32:37;;;;;;;8.25;3.60;;;;;;;11.13;91.35;101024.41;5079697;28;20471;-56
2022/09/16 02:35:05;;;;;;;8.15;3.20;;;;;;;11.12;91.16;101028.06;5072074;28;20116;-55
2022/09/16 02:37:35;;;;;;;7.63;3.42;;;;;;;11.12;91.41;101034.22;5090649;28;20036;-57
2022/09/16 02:40:08;;;;;;;9.57;3.20;;;;;;;11.12;91.62;101028.06;5072269;28;20089;-57
2022/09/16 02:42:33;;;;;;;;;;;;;;;11.26;91.45;101023.97;5077912;28;20551;-56
2022/09/16 02:45:01;;;;;;;8.75;3.13;;;;;;;11.20;90.74;101027.28;5079081;28;19924;-59
2022/09/16 02:47:29;;;;;;;10.10;3.42;;;;;;;11.16;90.95;101024.91;5076631;28;20037;-57
2022/09/16 02:50:33;;;;;;;8.55;3.47;;;;;;;11.25;91.36;101024.97;5073684;28;20043;-56
2022/09/16 02:53:12;;;;;;;12.45;3.47;;;;;;;11.20;91.99;101027.28;5048352;28;20390;-60
2022/09/16 02:55:52;;;;;;;8.18;3.20;;;;;;;11.23;92.09;101034.91;5078946;28;20115;-60
2022/09/16 02:58:17;;;;;;;11.27;3.30;;;;;;;11.19;92.02;101028.25;5096768;28;20506;-59
2022/09/16 03:00:47;;;;;;;9.23;3.35;;;;;;;11.09;93.03;101018.59;5074686;28;20036;-58
2022/09/16 03:03:13;;;;;;;10.75;3.42;;;;;;;11.12;92.69;101018.28;5076003;28;20479;-57
2022/09/16 03:05:57;;;;;;;9.02;3.20;;;;;;;11.20;92.99;101024.63;5070010;28;20501;-57
2022/09/16 03:08:22;;;;;;;9.18;3.33;;;;;;;11.13;92.73;101025.25;5073806;28;20025;-56
2022/09/16 03:10:48;;;;;;;8.55;3.20;;;;;;;11.14;93.02;101029.56;5065046;28;20031;-57
2022/09/16 03:13:27;;;;;;;9.13;3.50;;;;;;;11.13;93.13;101019.94;5070386;28;20099;-58
2022/09/16 03:16:01;;;;;;;11.27;3.33;;;;;;;11.13;92.88;101014.66;5082153;28;20053;-60
2022/09/16 03:18:49;;;;;;;6.93;2.97;;;;;;;11.14;92.37;101013.66;5085902;28;20487;-57
2022/09/16 03:21:39;;;;;;;7.95;3.00;;;;;;;11.21;92.64;101016.50;5073141;28;20060;-60
2022/09/16 03:24:16;;;;;;;9.02;2.88;;;;;;;11.20;93.47;101024.63;5074751;28;20063;-57
2022/09/16 03:27:06;;;;;;;7.20;2.97;;;;;;;11.22;93.39;101018.16;5088314;28;20134;-55
2022/09/16 03:29:37;;;;;;;10.82;3.45;;;;;;;11.16;93.66;101022.28;5069617;28;20028;-60
2022/09/16 03:32:27;;;;;;;7.75;3.20;;;;;;;11.22;93.68;101017.31;5064913;28;20373;-57
2022/09/16 03:35:01;;;;;;;7.38;3.13;;;;;;;11.13;93.27;101027.06;5073916;28;20054;-57
2022/09/16 03:37:30;;;;;;;6.57;3.05;;;;;;;11.19;94.18;101017.66;5084872;28;20024;-57
2022/09/16 03:39:58;;;;;;;12.55;3.10;;;;;;;11.13;93.81;101014.66;5069052;28;20020;-56
2022/09/16 03:42:24;;;;;;;6.43;3.40;;;;;;;11.13;93.98;101009.34;5082542;28;20425;-56
2022/09/16 03:44:50;;;;;;;9.82;2.95;;;;;;;11.13;93.31;101024.41;5076921;28;20051;-58
2022/09/16 03:47:16;;;;;;;6.88;3.08;;;;;;;11.12;94.21;101015.63;5072804;28;20043;-58
2022/09/16 03:49:41;;;;;;;7.85;3.50;;;;;;;11.12;93.15;101013.00;5074788;28;20032;-58
2022/09/16 03:52:07;;;;;;;9.15;3.38;;;;;;;11.11;93.74;101015.78;5070734;28;20024;-62
2022/09/16 03:54:34;;;;;;;7.63;3.17;;;;;;;11.06;93.42;101021.59;5079338;28;20036;-59
2022/09/16 03:56:59;;;;;;;10.30;3.45;;;;;;;11.06;93.79;101018.94;5082371;28;20030;-60
2022/09/16 03:59:28;;;;;;;10.43;3.20;;;;;;;11.04;93.98;101023.56;5089416;28;20028;-60
2022/09/16 04:01:54;;;;;;;6.20;3.17;;;;;;;10.98;93.92;101016.22;5079115;28;20028;-59
2022/09/16 04:04:19;;;;;;;11.98;3.20;;;;;;;10.92;94.07;101020.38;5067651;28;20040;-59
2022/09/16 04:06:44;;;;;;;8.10;2.97;;;;;;;10.99;94.87;101013.44;5077552;28;20398;-60
2022/09/16 04:09:11;;;;;;;8.98;3.00;;;;;;;10.97;95.42;101028.69;5067235;28;20033;-60
2022/09/16 04:11:37;;;;;;;9.93;3.17;;;;;;;10.98;95.09;101016.22;5059467;28;20035;-59
2022/09/16 04:14:03;;;;;;;8.07;3.10;;;;;;;10.96;94.67;101016.38;5077597;28;20028;-59
2022/09/16 04:16:29;;;;;;;7.93;3.05;;;;;;;10.96;95.58;101019.03;5077411;28;20027;-60
2022/09/16 04:18:55;;;;;;;5.20;2.85;;;;;;;10.99;95.06;101017.88;5073508;28;20039;-60
2022/09/16 04:21:20;;;;;;;6.70;2.90;;;;;;;10.97;94.90;101022.53;5071190;28;20032;-59
2022/09/16 04:23:47;;;;;;;5.90;2.83;;;;;;;10.97;94.50;101019.88;5066510;28;20424;-60
2022/09/16 04:26:12;;;;;;;8.20;2.78;;;;;;;10.96;94.20;101020.88;5068559;28;20073;-60
2022/09/16 04:28:38;;;;;;;8.10;3.05;;;;;;;10.96;94.53;101023.53;5073612;28;20484;-62
2022/09/16 04:31:06;;;;;;;9.45;2.78;;;;;;;10.93;94.93;101018.53;5062186;28;20133;-62
2022/09/16 04:33:33;;;;;;;9.50;2.78;;;;;;;10.95;94.42;101027.19;5068292;28;20036;-59
2022/09/16 04:36:14;;;;;;;10.68;2.85;;;;;;;11.01;96.05;101031.84;5072365;28;20032;-60
2022/09/16 04:38:41;;;;;;;7.07;3.08;;;;;;;11.03;96.84;101040.47;5073985;28;20036;-60
2022/09/16 04:41:18;;;;;;;7.00;3.13;;;;;;;11.07;96.82;101041.81;5069924;28;20079;-62
2022/09/16 04:43:44;;;;;;;10.95;2.45;;;;;;;11.09;96.22;101026.56;5062485;28;20505;-62
2022/09/16 04:46:10;;;;;;;7.55;2.60;;;;;;;11.05;97.79;101027.88;5070829;28;20036;-60
2022/09/16 04:48:35;;;;;;;6.90;2.47;;;;;;;11.05;97.07;101022.56;5068632;28;20032;-61
2022/09/16 04:51:09;;;;;;;11.20;2.80;;;;;;;11.01;98.32;101016.75;5070283;28;20406;-61
2022/09/16 04:53:36;;;;;;;7.65;2.80;;;;;;;11.03;98.36;101000.66;5068905;28;20111;-60
2022/09/16 04:56:14;;;;;;;6.25;2.50;;;;;;;11.05;99.10;101006.63;5067179;28;20020;-61
2022/09/16 04:58:44;;;;;;;9.60;2.38;;;;;;;11.02;97.11;101007.78;5068151;28;20046;-62
2022/09/16 05:01:13;;;;;;;8.18;2.20;;;;;;;11.05;97.79;101014.59;5064877;28;20067;-60
2022/09/16 05:03:40;;;;;;;6.20;2.10;;;;;;;11.01;96.75;101015.94;5065398;28;20100;-60
2022/09/16 05:06:14;;;;;;;5.20;2.00;;;;;;;10.99;96.51;101017.88;5066844;28;20029;-61
2022/09/16 05:08:40;;;;;;;4.38;2.20;;;;;;;10.98;96.61;101017.06;5070037;28;20090;-59
2022/09/16 05:11:07;;;;;;;7.03;2.33;;;;;;;10.96;96.34;101013.72;5071578;28;20506;-52
2022/09/16 05:13:32;;;;;;;8.07;2.30;;;;;;;10.96;96.65;101018.22;5066595;28;20016;-60
2022/09/16 05:16:02;;;;;;;5.70;2.20;;;;;;;10.95;95.83;101021.88;5068743;28;20387;-59
2022/09/16 05:18:28;;;;;;;6.50;2.08;;;;;;;10.94;96.25;101020.19;5069163;28;20028;-60
2022/09/16 05:20:58;;;;;;;3.85;2.10;;;;;;;10.93;96.08;101031.78;5066701;28;20047;-59
2022/09/16 05:23:23;;;;;;;5.85;2.00;;;;;;;10.90;96.10;101038.25;5067642;28;20024;-60
2022/09/16 05:25:48;;;;;;;6.55;2.33;;;;;;;10.93;96.87;101037.94;5067178;28;20395;-59
2022/09/16 05:28:13;;;;;;;8.02;2.42;;;;;;;10.94;97.24;101030.81;5070342;28;20750;-60
2022/09/16 05:30:39;;;;;;;4.35;2.10;;;;;;;10.94;97.60;101028.16;5069854;28;20455;-62
2022/09/16 05:33:04;;;;;;;11.18;2.35;;;;;;;10.95;97.67;101027.19;5065695;28;20033;-60
2022/09/16 05:35:29;;;;;;;6.18;1.98;;;;;;;10.99;97.19;101033.81;5064767;28;20029;-59
2022/09/16 05:37:55;;;;;;;5.90;2.20;;;;;;;11.00;97.95;101035.50;5072551;28;20029;-60
2022/09/16 05:40:21;;;;;;;5.82;2.13;;;;;;;11.03;97.91;101029.84;5066748;28;20039;-58
2022/09/16 05:42:50;;;;;;;7.38;2.10;;;;;;;11.05;97.39;101030.50;5068788;28;20390;-57
2022/09/16 05:45:15;;;;;;;9.63;2.30;;;;;;;11.05;97.28;101033.16;5069564;28;20048;-57
2022/09/16 05:47:46;;;;;;;7.25;2.28;;;;;;;11.09;98.25;101033.69;5070674;28;20146;-59
2022/09/16 05:50:12;;;;;;;7.20;2.15;;;;;;;11.09;98.08;101034.53;5065217;28;20029;-59
2022/09/16 05:52:37;;;;;;;6.13;2.20;;;;;;;11.12;97.75;101034.22;5067127;28;20028;-62
2022/09/16 05:55:02;;;;;;;6.72;2.42;;;;;;;11.13;98.13;101035.88;5066664;28;20036;-60
2022/09/16 05:57:28;;;;;;;8.80;2.30;;;;;;;11.15;97.62;101025.09;5067094;28;20028;-59
2022/09/16 05:59:53;;;;;;;6.22;2.13;;;;;;;11.15;96.75;101028.56;5065740;28;20501;-61
2022/09/16 06:02:18;;;;;;;9.10;2.20;;;;;;;11.13;97.16;101033.22;5070856;28;20043;-59
2022/09/16 06:04:43;;;;;;;9.20;2.10;;;;;;;11.13;97.30;101029.72;5078377;28;20039;-61
2022/09/16 06:07:09;;;;;;;7.03;2.30;;;;;;;11.17;97.05;101026.56;5073783;28;20036;-59
2022/09/16 06:09:34;;;;;;;5.32;2.08;;;;;;;11.14;97.28;101042.00;5072984;28;20032;-58
2022/09/16 06:11:59;;;;;;;7.40;2.10;;;;;;;11.13;97.70;101035.88;5076600;28;20075;-59
2022/09/16 06:14:25;;;;;;;8.20;2.10;;;;;;;11.12;97.52;101036.88;5072888;28;20046;-59
2022/09/16 06:16:50;;;;;;;4.20;2.00;;;;;;;11.12;97.06;101044.84;5071926;28;20115;-59
2022/09/16 06:19:17;;;;;;;5.90;2.00;;;;;;;11.16;98.28;101043.50;5071622;28;20198;-61
2022/09/16 06:21:43;;;;;;;5.88;2.10;;;;;;;11.23;98.98;101034.91;5061312;28;20119;-60
2022/09/16 06:24:10;;;;;;;6.53;1.95;;;;;;;11.23;97.68;101043.69;5044958;28;20403;-59
2022/09/16 06:26:40;;;;;;;6.30;1.80;;;;;;;11.22;97.92;101044.69;5074955;28;20119;-60
2022/09/16 06:29:05;;;;;;;6.13;1.65;;;;;;;11.22;96.77;101043.84;5076594;28;20556;-59
2022/09/16 06:31:32;;;;;;;5.30;1.80;;;;;;;11.19;96.26;101045.00;5061770;28;20040;-59
2022/09/16 06:33:57;;;;;;;7.75;1.88;;;;;;;11.22;96.18;101054.47;5073755;28;20771;-58
2022/09/16 06:36:27;;;;;;;4.75;1.63;;;;;;;11.23;96.08;101050.81;5077834;28;20509;-60
2022/09/16 06:38:53;;;;;;;5.32;1.85;;;;;;;11.26;97.04;101058.47;5065131;28;20123;-59
2022/09/16 06:41:20;;;;;;;5.60;1.90;;;;;;;11.30;97.17;101057.19;5061421;28;20116;-59
2022/09/16 06:43:46;;;;;;;5.53;1.70;;;;;;;11.32;96.14;101062.31;5064457;28;20036;-58
2022/09/16 06:46:15;;;;;;;4.70;1.73;;;;;;;11.32;97.26;101057.84;5066803;28;20036;-61
2022/09/16 06:48:42;;;;;;;6.38;1.90;;;;;;;11.32;98.06;101060.50;5067610;28;20126;-59
2022/09/16 06:51:13;;;;;;;6.10;2.05;;;;;;;11.30;96.50;101067.78;5064006;28;20544;-60
2022/09/16 06:53:39;;;;;;;5.57;2.00;;;;;;;11.33;98.21;101072.78;5065451;28;20023;-59
2022/09/16 06:56:10;;;;;;;4.35;1.80;;;;;;;11.33;98.64;101062.16;5066834;28;20040;-59
2022/09/16 06:58:36;;;;;;;5.47;2.05;;;;;;;11.35;97.75;101067.31;5072295;28;20024;-60
2022/09/16 07:01:13;;;;;;;3.45;1.70;;;;;;;11.33;96.80;101066.63;5058602;28;20169;-61
2022/09/16 07:03:40;;;;;;;3.22;1.83;;;;;;;11.29;96.79;101066.94;5065851;28;20033;-58
2022/09/16 07:06:07;;;;;;;4.80;2.03;;;;;;;11.33;96.13;101062.16;5061881;28;20056;-58
2022/09/16 07:08:34;;;;;;;7.03;2.40;;;;;;;11.38;96.85;101057.19;5070686;28;20047;-62
2022/09/16 07:11:07;;;;;;;7.03;2.22;;;;;;;11.41;96.80;101059.50;5064020;28;20047;-61
2022/09/16 07:13:34;;;;;;;5.68;2.13;;;;;;;11.44;96.91;101061.84;5069796;28;20741;-59
2022/09/16 07:16:01;;;;;;;5.25;2.30;;;;;;;11.51;95.92;101066.53;5068288;28;20432;-59
2022/09/16 07:18:28;;;;;;;4.97;2.00;;;;;;;11.56;96.20;101066.88;5075858;28;20042;-59
2022/09/16 07:21:10;;;;;;;6.03;2.05;;;;;;;11.60;95.17;101067.38;5068349;28;20029;-63
2022/09/16 07:23:36;;;;;;;6.90;2.15;;;;;;;11.70;93.87;101068.06;5068018;28;20059;-61
2022/09/16 07:26:10;;;;;;;3.88;2.10;;;;;;;11.79;95.83;101071.56;5067990;28;20055;-61
2022/09/16 07:28:37;;;;;;;5.00;1.90;;;;;;;11.93;95.00;101072.72;5078436;28;20031;-58
2022/09/16 07:31:06;;;;;;;3.55;1.80;;;;;;;12.02;94.00;101074.41;5059640;28;20040;-58
2022/09/16 07:33:36;;;;;;;6.68;1.92;;;;;;;12.18;92.96;101081.56;5068557;28;20037;-60
2022/09/16 07:36:04;;;;;;;4.50;1.90;;;;;;;12.28;94.80;101077.94;5082514;28;20040;-60
2022/09/16 07:38:29;;;;;;;4.40;1.95;;;;;;;12.24;92.33;101086.22;5073586;28;20039;-62
2022/09/16 07:40:55;;;;;;;4.15;1.90;;;;;;;12.20;92.42;101084.06;5074372;28;20419;-58
2022/09/16 07:43:20;;;;;;;4.32;2.10;;;;;;;12.20;92.83;101084.91;5077035;28;20078;-62
2022/09/16 07:45:53;;;;;;;4.15;2.10;;;;;;;12.20;90.48;101089.41;5068943;28;20143;-59
2022/09/16 07:48:18;;;;;;;7.97;2.50;;;;;;;12.19;91.45;101088.56;5078111;28;20024;-61
2022/09/16 07:50:53;;;;;;;6.88;2.20;;;;;;;12.16;92.83;101083.59;5065798;28;20024;-61
2022/09/16 07:53:18;;;;;;;4.90;2.67;;;;;;;12.09;95.06;101082.59;5067350;28;20032;-61
2022/09/16 07:55:44;;;;;;;5.38;2.30;;;;;;;12.07;94.66;101084.56;5070938;28;20059;-59
2022/09/16 07:58:09;;;;;;;4.35;2.58;;;;;;;12.03;94.91;101083.22;5090693;28;20067;-58
2022/09/16 08:00:34;;;;;;;7.47;2.60;;;;;;;11.99;95.38;101088.00;5060176;28;20373;-58
2022/09/16 08:02:59;;;;;;;8.77;2.70;;;;;;;11.96;95.93;101091.84;5060354;28;20036;-58
2022/09/16 08:05:25;;;;;;;7.70;2.58;;;;;;;11.96;96.01;101093.66;5062865;28;20271;-61
2022/09/16 08:07:50;;;;;;;8.20;3.00;;;;;;;12.03;96.61;101099.16;5087217;28;20031;-61
2022/09/16 08:10:15;;;;;;;6.82;2.58;;;;;;;12.03;95.66;101099.16;5063343;28;20029;-60
2022/09/16 08:12:41;;;;;;;6.63;2.80;;;;;;;12.11;96.68;101097.34;5060465;28;20058;-61
2022/09/16 08:15:07;;;;;;;6.70;2.92;;;;;;;12.16;95.78;101099.53;5068750;28;20066;-59
2022/09/16 08:17:32;;;;;;;4.38;2.70;;;;;;;12.24;96.37;101102.19;5082372;28;20041;-61
2022/09/16 08:19:57;;;;;;;11.23;2.95;;;;;;;12.25;95.55;101097.72;5068813;28;20127;-58
2022/09/16 08:22:24;;;;;;;7.75;2.95;;;;;;;12.30;95.52;101095.38;5072406;28;20097;-59
2022/09/16 08:24:49;;;;;;;7.70;2.67;;;;;;;12.39;95.25;101098.88;5061536;28;20044;-61
2022/09/16 08:27:15;;;;;;;6.53;2.92;;;;;;;12.49;95.52;101098.69;5040729;28;20495;-59
2022/09/16 08:29:40;;;;;;;8.18;3.05;;;;;;;12.57;94.60;101101.34;5066581;28;20708;-61
2022/09/16 08:32:05;;;;;;;6.68;2.95;;;;;;;12.55;95.26;101103.34;5064077;28;20024;-60
2022/09/16 08:34:30;;;;;;;8.35;2.85;;;;;;;12.52;94.46;101108.97;5066201;28;20028;-59
2022/09/16 08:36:56;;;;;;;9.70;2.90;;;;;;;12.51;95.39;101108.19;5067679;28;20257;-58
2022/09/16 08:39:21;;;;;;;6.15;2.80;;;;;;;12.62;95.49;101108.81;5058816;28;20449;-59
2022/09/16 08:42:24;;;;;;;6.88;2.83;;;;;;;12.72;93.96;101098.81;5061092;28;20075;-58
2022/09/16 08:45:19;;;;;;;8.13;3.03;;;;;;;12.86;92.62;101109.75;5061868;28;20052;-59
2022/09/16 08:47:47;;;;;;;8.85;2.50;;;;;;;12.77;92.09;101107.13;5074859;28;20023;-58
2022/09/16 08:50:22;;;;;;;9.63;2.78;;;;;;;12.90;93.10;101100.44;5064674;28;20399;-60
2022/09/16 08:52:50;;;;;;;7.35;2.72;;;;;;;12.96;92.01;101101.59;5064200;28;20028;-59
2022/09/16 08:55:22;;;;;;;5.10;2.40;;;;;;;13.03;89.83;101114.03;5067887;28;20027;-60
2022/09/16 08:58:14;;;;;;;6.07;2.35;;;;;;;13.12;90.42;101109.53;5070717;28;20483;-59
2022/09/16 09:00:43;;;;;;;4.72;2.28;;;;;;;13.18;88.27;101100.03;5062292;28;20032;-62
2022/09/16 09:03:35;;;;;;;8.30;2.40;;;;;;;13.24;89.43;101102.00;5059093;28;20056;-59
2022/09/16 09:06:05;;;;;;;4.18;1.80;;;;;;;13.26;87.86;101110.66;5063684;28;20107;-61
2022/09/16 09:08:53;;;;;;;10.68;2.38;;;;;;;13.27;87.06;101109.63;5061414;28;20024;-58
2022/09/16 09:11:34;;;;;;;7.15;1.90;;;;;;;13.37;89.24;101104.09;5063059;28;20028;-61
2022/09/16 09:14:41;;;;;;;5.70;1.85;;;;;;;13.55;88.48;101105.72;5069941;28;20279;-61
2022/09/16 09:17:32;;;;;;;6.45;1.92;;;;;;;13.57;84.75;101096.53;5061472;28;20518;-59
2022/09/16 09:20:35;;;;;;;4.15;1.80;;;;;;;13.57;84.20;101104.53;5047309;28;20033;-60
2022/09/16 09:23:26;;;;;;;8.05;1.98;;;;;;;13.52;86.14;101104.22;5070283;28;20030;-59
2022/09/16 09:26:15;;;;;;;6.25;2.10;;;;;;;13.47;85.03;101103.91;5072214;28;20879;-59
2022/09/16 09:28:55;;;;;;;8.02;1.70;;;;;;;13.47;84.74;101109.25;5070740;28;20040;-59
2022/09/16 09:31:32;;;;;;;7.35;1.80;;;;;;;13.55;84.53;101114.53;5069165;28;20033;-60
2022/09/16 09:34:22;;;;;;;7.18;2.08;;;;;;;13.55;83.96;101109.22;5071517;28;20372;-60
2022/09/16 09:37:09;;;;;;;5.97;1.90;;;;;;;13.58;83.10;101111.50;5073012;28;20039;-58
2022/09/16 09:39:51;;;;;;;5.40;1.90;;;;;;;13.67;84.00;101106.16;5068012;28;20029;-61
2022/09/16 09:42:29;;;;;;;7.57;2.30;;;;;;;13.83;80.99;101105.22;5063487;28;20096;-62
2022/09/16 09:45:12;;;;;;;5.70;2.60;;;;;;;13.91;80.18;101101.69;5061682;28;20737;-60
2022/09/16 09:47:46;;;;;;;8.32;3.40;;;;;;;14.06;81.83;101093.75;5068906;28;20122;-58
2022/09/16 09:50:37;;;;;;;7.53;2.20;;;;;;;14.11;82.43;101091.34;5060250;28;20491;-59
2022/09/16 09:53:22;;;;;;;7.63;2.00;;;;;;;14.23;82.20;101094.44;5062727;28;20522;-62
2022/09/16 09:55:54;;;;;;;5.32;1.83;;;;;;;14.26;79.49;101094.06;5063132;28;20534;-61
2022/09/16 09:58:33;;;;;;;6.57;1.80;;;;;;;14.12;78.40;101109.03;5065400;28;20032;-59
2022/09/16 10:00:59;;;;;;;3.10;1.25;;;;;;;13.77;69.92;101112.06;5062031;28;20032;-61
2022/09/16 10:03:26;;;;;;;4.90;1.20;;;;;;;13.47;71.42;101122.56;5061402;28;20062;-58
2022/09/16 10:05:51;;;;;;;4.13;1.20;;;;;;;13.21;77.30;101128.97;5063108;28;20040;-62
2022/09/16 10:08:19;;;;;;;4.65;1.42;;;;;;;12.85;77.42;101150.69;5068342;28;20082;-59
2022/09/16 10:10:51;;;;;;;12.50;1.85;;;;;;;12.57;81.30;101159.88;5061645;28;20075;-58
2022/09/16 10:13:18;;;;;;;19.05;2.45;;;;;;;12.00;84.58;101149.97;5077748;28;20066;-59
2022/09/16 10:15:44;;;;;;;4.72;1.23;;;;;;;11.02;83.14;101148.44;5080519;28;20032;-58
2022/09/16 10:18:28;;;;;;;7.00;1.40;;;;;;;10.72;88.27;101139.13;5083176;28;20529;-59
2022/09/16 10:21:07;;;;;;;1.90;0.82;;;;;;;10.75;88.56;101139.66;5072787;28;20037;-59
2022/09/16 10:23:34;;;;;;;4.00;0.88;;;;;;;10.87;90.65;101126.94;5063761;28;20121;-59
2022/09/16 10:26:05;;;;;;;6.07;1.30;;;;;;;10.81;89.75;101118.81;5063134;28;20118;-58
2022/09/16 10:28:30;;;;;;;2.05;1.00;;;;;;;10.94;90.37;101118.34;5063149;28;20534;-58
2022/09/16 10:30:58;;;;;;;2.65;0.73;;;;;;;10.94;90.14;101110.41;5068620;28;20032;-60
2022/09/16 10:33:28;;;;;;;4.28;0.90;;;;;;;10.93;90.29;101119.34;5061991;28;20024;-61
2022/09/16 10:36:00;;;;;;;4.10;0.98;;;;;;;11.05;90.97;101117.28;5066882;28;20514;-58
2022/09/16 10:38:43;;;;;;;2.20;0.93;;;;;;;11.10;90.67;101118.47;5071789;28;20267;-60
2022/09/16 10:41:09;;;;;;;2.15;1.10;;;;;;;11.16;91.26;101123.13;5062294;28;20024;-58
2022/09/16 10:43:38;;;;;;;3.10;0.98;;;;;;;11.20;94.02;101120.16;5068539;28;22018;-60
2022/09/16 10:46:04;;;;;;;2.78;1.33;;;;;;;11.25;93.63;101123.19;5061234;28;20044;-59
2022/09/16 10:48:30;;;;;;;5.35;1.15;;;;;;;11.37;94.22;101127.22;5064734;28;20058;-58
2022/09/16 10:51:03;;;;;;;4.28;0.98;;;;;;;11.57;94.94;101121.66;5071994;28;20032;-56
2022/09/16 10:53:37;;;;;;;4.80;1.50;;;;;;;11.75;95.28;101123.34;5062650;28;21164;-57
2022/09/16 10:56:13;;;;;;;3.33;1.40;;;;;;;11.81;94.84;101117.38;5078210;28;20035;-59
2022/09/16 10:58:38;;;;;;;6.65;1.67;;;;;;;11.92;95.77;101119.75;5079294;28;20063;-57
2022/09/16 11:01:06;;;;;;;4.43;1.80;;;;;;;11.98;95.93;101124.41;5075290;28;20066;-59
2022/09/16 11:03:39;;;;;;;3.40;1.60;;;;;;;12.07;97.62;101116.47;5063324;28;20042;-59
2022/09/16 11:06:08;;;;;;;8.80;1.95;;;;;;;12.14;97.82;101120.13;5063693;28;20043;-57
2022/09/16 11:08:52;;;;;;;6.07;1.95;;;;;;;12.21;97.22;101115.81;5058777;28;20055;-59
2022/09/16 11:11:49;;;;;;;5.03;2.00;;;;;;;12.30;96.57;101121.13;5062963;28;20407;-58
2022/09/16 11:14:25;;;;;;;7.07;2.00;;;;;;;12.31;94.57;101122.78;5066941;28;20040;-58
2022/09/16 11:16:57;;;;;;;5.75;1.88;;;;;;;12.36;96.09;101125.78;5064033;28;20143;-57
2022/09/16 11:19:47;;;;;;;6.00;2.00;;;;;;;12.40;94.75;101121.81;5060433;28;20905;-58
2022/09/16 11:22:24;;;;;;;8.88;1.98;;;;;;;12.42;96.39;101125.13;5068677;28;20038;-60
2022/09/16 11:24:58;;;;;;;7.10;1.60;;;;;;;12.41;94.81;101126.13;5059541;28;20042;-56
2022/09/16 11:27:44;;;;;;;7.18;1.90;;;;;;;12.48;96.72;101119.13;5072002;28;20032;-58
2022/09/16 11:30:16;;;;;;;8.45;2.30;;;;;;;12.71;97.85;101109.63;5068977;28;20032;-57
2022/09/16 11:33:03;;;;;;;9.52;2.30;;;;;;;12.95;95.79;101113.22;5079350;28;20502;-58
2022/09/16 11:35:39;;;;;;;5.55;2.08;;;;;;;13.18;96.53;101114.16;5074876;28;20039;-60
2022/09/16 11:38:28;;;;;;;7.60;2.38;;;;;;;13.38;93.03;101123.59;5089895;28;20499;-56
2022/09/16 11:41:00;;;;;;;8.18;2.30;;;;;;;13.43;95.80;101123.91;5070038;28;20059;-57
2022/09/16 11:43:54;;;;;;;10.68;2.47;;;;;;;13.51;91.01;101129.22;5080446;28;20031;-59
2022/09/16 11:46:30;;;;;;;6.03;1.90;;;;;;;13.66;88.94;101131.16;5082429;28;20115;-56